Time;durP1;ratioP1;P1;durP2;ratioP2;P2;SDS_P1;SDS_P2;PMS_P1;PMS_P2;Temp;Humidity;BMP_temperature;BMP_pressure;BME280_temperature;BME280_humidity;BME280_pressure;Samples;Min_cycle;Max_cycle;Signal;HPM_P1;HPM_P2
2023/02/07 00:04:58;;;;;;;277.50;119.60;;;;;;;-8.48;80.67;101177.92;220940;1280;24036;-71
2023/02/07 00:10:00;;;;;;;287.70;121.80;;;;;;;-8.52;80.82;101167.34;220851;1281;24368;-71
2023/02/07 00:15:08;;;;;;;250.20;111.90;;;;;;;-8.59;80.62;101171.64;220670;1283;22632;-70
2023/02/07 00:20:11;;;;;;;291.90;122.90;;;;;;;-8.66;80.71;101166.05;220886;1283;22591;-71
2023/02/07 00:25:13;;;;;;;258.20;110.00;;;;;;;-8.75;80.65;101173.79;220825;1281;22616;-71
2023/02/07 00:30:17;;;;;;;207.60;88.60;;;;;;;-8.81;80.56;101162.73;220894;1281;22654;-71
2023/02/07 00:35:18;;;;;;;202.90;84.90;;;;;;;-8.82;81.09;101163.92;220856;1283;22075;-71
2023/02/07 00:40:20;;;;;;;224.50;94.30;;;;;;;-8.83;81.24;101174.17;220968;1279;22615;-69
2023/02/07 00:45:22;;;;;;;227.50;95.70;;;;;;;-8.80;81.66;101170.08;220969;1278;25497;-70
2023/02/07 00:50:24;;;;;;;243.60;104.00;;;;;;;-8.81;81.41;101185.61;220861;1275;22578;-71
2023/02/07 00:55:26;;;;;;;224.20;98.10;;;;;;;-8.86;81.12;101182.04;220915;1275;25607;-71
2023/02/07 01:00:28;;;;;;;229.20;98.80;;;;;;;-8.92;81.13;101179.16;220858;1283;22736;-72
2023/02/07 01:05:29;;;;;;;225.90;95.40;;;;;;;-8.96;81.22;101165.54;220712;1279;22586;-71
2023/02/07 01:10:31;;;;;;;226.40;95.30;;;;;;;-8.99;81.45;101153.77;220681;1278;22632;-71
2023/02/07 01:15:42;;;;;;;213.10;90.30;;;;;;;-9.00;81.33;101149.85;220842;1280;22738;-70
2023/02/07 01:20:44;;;;;;;212.70;92.10;;;;;;;-9.02;81.39;101127.31;220780;1281;24390;-72
2023/02/07 01:25:46;;;;;;;209.20;90.70;;;;;;;-9.08;81.06;101119.52;220895;1276;23451;-72
2023/02/07 01:30:48;;;;;;;203.50;83.70;;;;;;;-9.15;81.16;101122.77;220807;1281;22719;-71
2023/02/07 01:35:50;;;;;;;221.90;92.10;;;;;;;-9.18;81.38;101113.23;220852;1275;24715;-72
2023/02/07 01:40:52;;;;;;;223.70;97.10;;;;;;;-9.27;81.07;101109.70;220867;1279;24249;-71
2023/02/07 01:45:54;;;;;;;240.70;100.80;;;;;;;-9.35;80.89;101115.20;220886;1281;24399;-71
2023/02/07 01:50:59;;;;;;;223.10;94.10;;;;;;;-9.41;81.14;101111.98;220733;1282;25687;-71
2023/02/07 01:56:05;;;;;;;222.30;88.10;;;;;;;-9.47;81.25;101113.69;220880;1278;22663;-70
2023/02/07 02:01:16;;;;;;;217.10;90.70;;;;;;;-9.48;81.32;101121.54;219756;1279;24248;-71
2023/02/07 02:06:20;;;;;;;211.60;88.20;;;;;;;-9.47;81.76;101131.95;220905;1278;23893;-71
2023/02/07 02:11:34;;;;;;;209.00;88.10;;;;;;;-9.44;81.78;101139.45;221010;1282;22727;-71
2023/02/07 02:16:43;;;;;;;212.00;92.20;;;;;;;-9.42;82.06;101138.25;220982;1278;22607;-71
2023/02/07 02:22:24;;;;;;;210.00;91.50;;;;;;;-9.41;82.05;101128.02;220871;1277;22536;-72
2023/02/07 02:27:51;;;;;;;191.70;77.50;;;;;;;-9.40;81.94;101125.11;220602;1282;22559;-71
2023/02/07 02:32:59;;;;;;;193.40;81.60;;;;;;;-9.38;82.15;101131.42;220934;1275;25346;-71
2023/02/07 02:39:01;;;;;;;206.60;87.10;;;;;;;-9.41;82.00;101138.76;220950;1278;25370;-71
2023/02/07 02:44:12;;;;;;;218.80;92.50;;;;;;;-9.45;81.94;101130.40;220394;1283;22694;-71
2023/02/07 02:49:16;;;;;;;267.90;108.00;;;;;;;-9.50;81.80;101116.61;220930;1278;23929;-71
2023/02/07 02:54:34;;;;;;;278.20;109.80;;;;;;;-9.54;81.69;101116.64;221084;1278;24284;-71
2023/02/07 03:00:08;;;;;;;253.80;106.80;;;;;;;-9.54;81.94;101127.90;220907;1282;24421;-71
2023/02/07 03:05:32;;;;;;;210.40;87.90;;;;;;;-9.50;82.34;101129.91;220895;1282;25393;-71
2023/02/07 03:10:56;;;;;;;222.90;95.30;;;;;;;-9.46;82.19;101124.61;220929;1279;24254;-71
2023/02/07 03:16:09;;;;;;;198.30;83.20;;;;;;;-9.47;82.22;101123.25;221069;1275;26576;-71
2023/02/07 03:21:37;;;;;;;215.20;91.40;;;;;;;-9.49;81.89;101127.52;220950;1280;22752;-71
2023/02/07 03:26:43;;;;;;;198.80;85.40;;;;;;;-9.47;82.23;101117.45;220922;1275;24252;-70
2023/02/07 03:31:50;;;;;;;190.30;80.50;;;;;;;-9.46;82.47;101120.34;220944;1280;22710;-71
2023/02/07 03:37:16;;;;;;;195.30;84.20;;;;;;;-9.44;82.44;101134.67;220964;1278;23466;-71
2023/02/07 03:42:44;;;;;;;177.30;75.10;;;;;;;-9.40;82.62;101133.30;220978;1281;22550;-70
2023/02/07 03:47:46;;;;;;;202.30;86.20;;;;;;;-9.40;82.50;101133.80;220802;1282;24451;-71
2023/02/07 03:52:48;;;;;;;236.90;96.50;;;;;;;-9.42;82.12;101129.89;220793;1281;22605;-71
2023/02/07 03:57:50;;;;;;;219.30;89.70;;;;;;;-9.43;82.31;101137.91;219834;1275;24377;-70
2023/02/07 04:02:52;;;;;;;203.70;88.20;;;;;;;-9.43;82.46;101146.61;220949;1278;22556;-71
2023/02/07 04:07:54;;;;;;;198.80;84.40;;;;;;;-9.41;82.61;101146.78;220774;1281;25701;-71
2023/02/07 04:12:56;;;;;;;226.20;97.70;;;;;;;-9.40;82.45;101143.36;220787;1278;23914;-71
2023/02/07 04:17:58;;;;;;;241.90;104.50;;;;;;;-9.41;82.54;101140.80;220876;1278;22545;-71
2023/02/07 04:23:00;;;;;;;234.60;99.10;;;;;;;-9.41;82.34;101146.77;220939;1281;23952;-72
2023/02/07 04:28:02;;;;;;;203.00;87.20;;;;;;;-9.42;82.55;101145.76;220850;1281;22565;-71
2023/02/07 04:33:04;;;;;;;212.10;94.60;;;;;;;-9.40;82.53;101145.58;220919;1281;25723;-70
2023/02/07 04:38:06;;;;;;;206.20;90.40;;;;;;;-9.40;82.39;101145.58;220998;1278;24913;-72
2023/02/07 04:43:08;;;;;;;222.40;96.40;;;;;;;-9.43;82.44;101142.17;220782;1278;22573;-71
2023/02/07 04:48:09;;;;;;;248.00;109.40;;;;;;;-9.47;82.27;101138.77;220907;1279;22740;-70
2023/02/07 04:53:12;;;;;;;287.60;122.90;;;;;;;-9.50;82.22;101133.33;220999;1282;22913;-71
2023/02/07 04:58:13;;;;;;;254.40;105.80;;;;;;;-9.50;82.37;101130.27;220859;1281;22567;-70
2023/02/07 05:03:15;;;;;;;224.50;96.30;;;;;;;-9.52;82.16;101127.71;220863;1283;22784;-72
2023/02/07 05:08:17;;;;;;;284.00;117.90;;;;;;;-9.56;82.20;101130.11;221010;1278;25597;-70
2023/02/07 05:13:20;;;;;;;266.00;110.70;;;;;;;-9.56;82.21;101133.17;220912;1281;24259;-71
2023/02/07 05:18:22;;;;;;;302.90;123.60;;;;;;;-9.61;81.95;101138.63;220966;1278;22634;-71
2023/02/07 05:23:24;;;;;;;370.30;150.00;;;;;;;-9.67;81.80;101149.41;220898;1281;22582;-71
2023/02/07 05:28:25;;;;;;;371.50;148.50;;;;;;;-9.67;81.97;101147.37;220857;1282;22597;-71
2023/02/07 05:33:27;;;;;;;330.00;140.80;;;;;;;-9.65;82.22;101154.52;220826;1275;23445;-70
2023/02/07 05:38:29;;;;;;;271.70;114.50;;;;;;;-9.66;82.02;101153.33;220890;1281;21921;-72
2023/02/07 05:43:31;;;;;;;303.60;123.90;;;;;;;-9.68;82.16;101152.65;220966;1278;22590;-71
2023/02/07 05:48:33;;;;;;;242.50;105.70;;;;;;;-9.69;82.24;101153.16;220997;1278;24327;-71
2023/02/07 05:53:35;;;;;;;229.70;95.00;;;;;;;-9.70;82.19;101148.39;220982;1278;25532;-71
2023/02/07 05:58:37;;;;;;;251.00;103.90;;;;;;;-9.71;82.31;101152.48;220914;1278;21823;-72
2023/02/07 06:03:39;;;;;;;249.30;106.10;;;;;;;-9.66;82.29;101163.21;220901;1279;24232;-70
2023/02/07 06:08:41;;;;;;;223.60;93.20;;;;;;;-9.59;82.32;101161.14;219781;1281;24920;-71
2023/02/07 06:13:43;;;;;;;243.80;102.60;;;;;;;-9.52;82.16;101163.02;220981;1278;22590;-71
2023/02/07 06:18:45;;;;;;;311.60;128.80;;;;;;;-9.47;81.88;101163.16;220752;1281;25712;-70
2023/02/07 06:23:50;;;;;;;319.20;131.10;;;;;;;-9.37;81.66;101171.84;221007;1283;25522;-71
2023/02/07 06:28:52;;;;;;;330.90;136.20;;;;;;;-9.25;81.86;101181.34;221072;1279;22662;-70
2023/02/07 06:33:54;;;;;;;310.50;129.10;;;;;;;-9.11;81.97;101184.20;220841;1281;22710;-71
2023/02/07 06:38:56;;;;;;;331.70;134.70;;;;;;;-8.99;81.93;101188.41;221147;1271;23961;-74
2023/02/07 06:43:58;;;;;;;297.80;126.50;;;;;;;-8.89;81.85;101189.06;220991;1275;24243;-70
2023/02/07 06:49:00;;;;;;;298.40;125.40;;;;;;;-8.76;81.99;101188.83;221117;1279;21779;-70
2023/02/07 06:54:06;;;;;;;322.90;135.50;;;;;;;-8.63;81.78;101192.35;221492;1275;22581;-71
2023/02/07 06:59:08;;;;;;;291.80;123.50;;;;;;;-8.53;81.89;101197.58;221829;1263;24087;-70
2023/02/07 07:04:10;;;;;;;290.60;121.00;;;;;;;-8.35;81.86;101200.53;219233;1261;24232;-70
2023/02/07 07:09:12;;;;;;;287.60;128.10;;;;;;;-8.18;82.21;101206.89;221694;1260;139478;-71
2023/02/07 07:14:14;;;;;;;303.70;128.00;;;;;;;-8.00;82.08;101213.08;221687;1260;140562;-71
2023/02/07 07:19:16;;;;;;;309.70;132.60;;;;;;;-7.84;82.08;101214.98;221410;1265;140761;-70
2023/02/07 07:24:18;;;;;;;278.10;123.50;;;;;;;-7.72;81.75;101221.56;221369;1268;139645;-70
2023/02/07 07:29:20;;;;;;;296.40;131.60;;;;;;;-7.62;81.54;101221.65;221306;1265;22627;-70
2023/02/07 07:34:21;;;;;;;284.10;124.60;;;;;;;-7.51;81.74;101211.96;221434;1262;139423;-71
2023/02/07 07:39:24;;;;;;;305.60;129.80;;;;;;;-7.27;82.04;101205.21;221113;1265;140784;-70
2023/02/07 07:44:26;;;;;;;272.30;119.40;;;;;;;-7.00;82.01;101204.05;221077;1268;140276;-72
2023/02/07 07:49:28;;;;;;;266.30;119.10;;;;;;;-6.83;81.88;101196.64;221266;1272;139613;-71
2023/02/07 07:54:30;;;;;;;243.00;105.80;;;;;;;-6.68;81.80;101194.73;221116;1265;140165;-71
2023/02/07 07:59:32;;;;;;;242.90;113.60;;;;;;;-6.55;81.67;101189.59;221431;1268;25492;-71
2023/02/07 08:04:34;;;;;;;236.90;109.50;;;;;;;-6.43;81.66;101186.67;221630;1265;139353;-72
2023/02/07 08:09:36;;;;;;;240.60;109.60;;;;;;;-6.27;81.67;101184.90;221500;1265;139620;-71
2023/02/07 08:14:38;;;;;;;239.80;109.90;;;;;;;-6.04;81.73;101188.83;221036;1277;139881;-71
2023/02/07 08:19:40;;;;;;;257.60;121.10;;;;;;;-5.85;81.58;101190.20;221021;1279;139876;-72
2023/02/07 08:24:41;;;;;;;233.40;111.90;;;;;;;-5.66;81.58;101190.04;220961;1281;140697;-72
2023/02/07 08:29:44;;;;;;;239.00;113.60;;;;;;;-5.50;81.26;101185.81;220907;1269;139690;-71
2023/02/07 08:34:46;;;;;;;240.40;117.70;;;;;;;-5.41;81.08;101192.84;221046;1272;22620;-71
2023/02/07 08:39:51;;;;;;;220.50;102.00;;;;;;;-5.38;80.94;101197.44;221104;1265;139334;-71
2023/02/07 08:44:53;;;;;;;226.60;109.00;;;;;;;-5.27;81.17;101199.80;221051;1271;139697;-71
2023/02/07 08:49:55;;;;;;;252.30;122.50;;;;;;;-5.19;80.97;101212.20;221190;1281;139636;-70
2023/02/07 08:54:57;;;;;;;242.70;116.60;;;;;;;-5.12;81.02;101213.95;221155;1270;139844;-71
2023/02/07 08:59:59;;;;;;;230.60;111.20;;;;;;;-5.06;80.66;101208.67;221178;1282;139608;-71
2023/02/07 09:05:01;;;;;;;220.70;106.90;;;;;;;-5.06;80.57;101210.05;221279;1267;22904;-71
2023/02/07 09:10:05;;;;;;;222.30;104.80;;;;;;;-4.94;80.86;101202.27;221139;1278;140066;-71
2023/02/07 09:15:07;;;;;;;221.10;110.60;;;;;;;-4.74;81.11;101202.02;221406;1275;139498;-71
2023/02/07 09:20:10;;;;;;;216.10;104.60;;;;;;;-4.55;80.91;101203.83;221140;1275;139663;-71
2023/02/07 09:25:12;;;;;;;230.50;110.80;;;;;;;-4.39;80.68;101207.60;221509;1275;139631;-72
2023/02/07 09:30:14;;;;;;;191.60;98.00;;;;;;;-4.29;80.44;101201.52;221451;1282;139733;-71
2023/02/07 09:35:16;;;;;;;211.10;107.00;;;;;;;-4.27;80.02;101193.23;219400;1282;22630;-71
2023/02/07 09:40:19;;;;;;;198.70;99.30;;;;;;;-4.10;80.34;101181.83;221274;1280;139317;-72
2023/02/07 09:45:25;;;;;;;185.00;96.00;;;;;;;-3.90;80.56;101174.98;221404;1282;139458;-72
2023/02/07 09:50:34;;;;;;;190.70;100.40;;;;;;;-3.74;80.25;101174.56;221481;1275;159174;-72
2023/02/07 09:55:45;;;;;;;193.90;99.40;;;;;;;-3.54;80.26;101169.41;221474;1279;139687;-73
2023/02/07 10:01:02;;;;;;;203.70;103.30;;;;;;;-3.44;79.87;101162.41;221280;1269;139670;-73
2023/02/07 10:06:13;;;;;;;208.10;108.20;;;;;;;-3.21;80.10;101154.20;221297;1281;139652;-73
2023/02/07 10:11:22;;;;;;;186.70;97.90;;;;;;;-2.93;79.80;101155.13;221203;1282;22576;-73
2023/02/07 10:16:43;;;;;;;194.90;99.90;;;;;;;-2.82;79.60;101151.34;221041;1278;138986;-74
2023/02/07 10:21:56;;;;;;;176.30;92.50;;;;;;;-2.49;80.01;101149.66;221148;1277;139442;-74
2023/02/07 10:27:11;;;;;;;186.20;94.50;;;;;;;-2.28;79.55;101146.91;221157;1276;139143;-74
2023/02/07 10:32:22;;;;;;;172.20;90.20;;;;;;;-2.02;79.69;101133.81;221137;1281;139364;-75
2023/02/07 10:37:27;;;;;;;153.70;80.00;;;;;;;-1.73;79.55;101125.08;221069;1276;139927;-74
2023/02/07 10:42:32;;;;;;;142.70;77.00;;;;;;;-1.55;79.25;101125.31;221242;1267;139313;-75
2023/02/07 10:47:38;;;;;;;139.20;73.90;;;;;;;-1.36;78.72;101115.48;221149;1276;139392;-75
2023/02/07 10:52:51;;;;;;;133.40;69.80;;;;;;;-1.14;78.94;101113.30;221538;1275;25076;-76
2023/02/07 10:57:55;;;;;;;140.30;78.50;;;;;;;-1.05;78.32;101121.43;221177;1274;139110;-76
2023/02/07 11:03:25;;;;;;;125.10;70.40;;;;;;;-0.92;78.62;101121.48;221283;1277;139144;-77
2023/02/07 11:08:42;;;;;;;115.70;63.00;;;;;;;-0.87;78.15;101121.44;221418;1267;139456;-77
2023/02/07 11:13:48;;;;;;;120.90;63.80;;;;;;;-0.78;77.99;101124.05;221425;1280;139295;-78
2023/02/07 11:19:01;;;;;;;118.70;62.90;;;;;;;-0.73;77.74;101125.75;221342;1275;139924;-78
2023/02/07 11:24:43;;;;;;;103.50;53.30;;;;;;;-0.63;78.04;101118.77;221582;1277;139324;-79
2023/02/07 11:30:19;;;;;;;101.90;56.30;;;;;;;-0.62;77.70;101120.67;221388;1281;139368;-79
2023/02/07 11:35:22;;;;;;;108.10;55.60;;;;;;;-0.48;78.21;101116.48;221586;1276;25400;-79
2023/02/07 11:40:46;;;;;;;105.70;53.40;;;;;;;-0.43;77.45;101114.86;221172;1276;139376;-80
2023/02/07 11:46:04;;;;;;;109.70;56.70;;;;;;;-0.53;77.29;101114.77;221323;1270;139345;-80
2023/02/07 11:51:17;;;;;;;115.90;56.70;;;;;;;-0.64;77.21;101120.38;221336;1279;139458;-80
2023/02/07 11:56:37;;;;;;;107.60;57.90;;;;;;;-0.74;77.43;101115.59;221478;1276;139440;-79
2023/02/07 12:01:53;;;;;;;97.10;51.10;;;;;;;-0.68;77.62;101120.90;221627;1280;139320;-79
2023/02/07 12:07:52;;;;;;;104.20;55.90;;;;;;;-0.69;77.57;101124.02;222922;1275;139308;-79
2023/02/07 12:13:06;;;;;;;105.10;54.50;;;;;;;-0.71;77.97;101131.54;221655;1286;140055;-76
2023/02/07 12:18:22;;;;;;;101.20;53.50;;;;;;;-0.75;77.84;101126.35;221079;1270;140171;-77
2023/02/07 12:23:34;;;;;;;108.00;54.20;;;;;;;-0.73;78.39;101119.52;221593;1280;22545;-76
2023/02/07 12:29:06;;;;;;;94.60;49.80;;;;;;;-0.69;78.30;101108.30;221702;1267;22587;-77
2023/02/07 12:34:31;;;;;;;107.10;55.00;;;;;;;-0.87;77.41;101103.64;221652;1275;139086;-79
2023/02/07 12:39:42;;;;;;;103.40;54.80;;;;;;;-0.90;77.99;101103.58;221416;1266;139382;-79
2023/02/07 12:45:01;;;;;;;101.00;52.80;;;;;;;-0.88;78.11;101095.20;221513;1277;139566;-79
2023/02/07 12:50:33;;;;;;;93.80;51.00;;;;;;;-0.84;78.17;101088.64;223239;1267;139545;-79
2023/02/07 12:56:17;;;;;;;79.40;44.40;;;;;;;-0.84;78.08;101077.38;222127;1279;139420;-81
2023/02/07 13:02:38;;;;;;;95.20;50.50;;;;;;;-0.79;78.28;101078.59;221288;1275;139281;-80
2023/02/07 13:08:12;;;;;;;80.90;42.00;;;;;;;-0.63;78.51;101072.41;220823;1280;139523;-79
2023/02/07 13:13:56;;;;;;;67.80;36.10;;;;;;;-0.55;78.21;101067.74;221173;1277;139808;-79
2023/02/07 13:19:27;;;;;;;112.60;37.40;;;;;;;-0.52;77.97;101070.95;220992;1268;139402;-79
2023/02/07 13:24:31;;;;;;;91.70;35.50;;;;;;;-0.49;78.24;101070.98;220924;1284;139512;-76
2023/02/07 13:29:35;;;;;;;67.30;34.40;;;;;;;-0.49;77.72;101068.36;221647;1277;22587;-76
2023/02/07 13:35:05;;;;;;;128.80;33.10;;;;;;;-0.46;77.87;101072.09;217652;1283;22555;-75
2023/02/07 13:40:30;;;;;;;117.80;31.10;;;;;;;-0.45;77.38;101074.95;221188;1283;139310;-75
2023/02/07 13:45:47;;;;;;;38.40;23.20;;;;;;;-0.46;77.78;101078.33;221206;1276;139254;-78
2023/02/07 13:51:29;;;;;;;44.50;23.80;;;;;;;-0.46;77.64;101075.89;221133;1259;139919;-78
2023/02/07 14:01:58;;;;;;;45.10;25.20;;;;;;;-0.54;77.75;101085.88;222095;1259;139266;-80
2023/02/07 14:07:10;;;;;;;46.20;26.80;;;;;;;-0.59;77.26;101089.75;221277;1275;139169;-77
2023/02/07 14:12:42;;;;;;;49.10;27.50;;;;;;;-0.70;77.28;101085.66;221287;1280;139867;-77
2023/02/07 14:18:30;;;;;;;48.60;29.10;;;;;;;-0.80;77.65;101092.10;221390;1267;139192;-79
2023/02/07 14:24:30;;;;;;;48.40;28.30;;;;;;;-0.89;77.63;101089.00;221421;1272;139882;-76
2023/02/07 14:30:19;;;;;;;51.20;28.80;;;;;;;-0.98;77.63;101088.99;221281;1273;139263;-77
2023/02/07 14:36:02;;;;;;;47.90;28.80;;;;;;;-1.05;77.84;101080.27;221464;1261;23169;-77
2023/02/07 14:41:08;;;;;;;64.40;35.40;;;;;;;-1.07;78.30;101074.47;221496;1275;24277;-78
2023/02/07 14:46:54;;;;;;;69.70;38.80;;;;;;;-1.13;77.97;101068.45;221398;1268;139150;-78
2023/02/07 14:52:04;;;;;;;70.50;37.70;;;;;;;-1.20;77.90;101064.08;221588;1271;138985;-77
2023/02/07 14:57:28;;;;;;;80.60;39.50;;;;;;;-1.26;78.23;101058.08;221365;1266;139217;-78
2023/02/07 15:02:40;;;;;;;65.30;37.00;;;;;;;-1.33;78.41;101056.06;221267;1275;22539;-76
2023/02/07 15:08:14;;;;;;;66.80;37.00;;;;;;;-1.39;78.43;101055.11;221035;1280;22746;-77
2023/02/07 15:13:50;;;;;;;57.60;32.50;;;;;;;-1.44;78.60;101051.82;221001;1282;25361;-77
2023/02/07 15:19:14;;;;;;;63.30;33.90;;;;;;;-1.52;78.98;101057.64;220960;1282;22546;-76
2023/02/07 15:24:33;;;;;;;64.00;35.70;;;;;;;-1.57;78.82;101064.05;220937;1278;22550;-76
2023/02/07 15:30:01;;;;;;;54.80;31.70;;;;;;;-1.65;78.76;101063.14;220990;1282;22676;-75
2023/02/07 15:35:18;;;;;;;58.50;33.20;;;;;;;-1.73;79.01;101071.02;220900;1282;22734;-75
2023/02/07 15:40:26;;;;;;;66.60;38.20;;;;;;;-1.76;79.52;101080.60;220871;1282;24298;-76
2023/02/07 15:45:32;;;;;;;60.00;32.60;;;;;;;-1.78;79.39;101087.05;220969;1282;22540;-75
2023/02/07 15:50:36;;;;;;;60.60;33.30;;;;;;;-1.84;79.28;101092.64;220996;1276;24596;-74
2023/02/07 15:55:47;;;;;;;50.30;30.30;;;;;;;-1.90;79.38;101094.93;221157;1276;22533;-74
2023/02/07 16:00:52;;;;;;;54.60;31.30;;;;;;;-2.02;79.42;101098.79;220981;1280;22508;-75
2023/02/07 16:06:33;;;;;;;60.40;35.00;;;;;;;-2.16;79.51;101104.42;220832;1279;25377;-75
2023/02/07 16:11:38;;;;;;;68.20;35.50;;;;;;;-2.32;79.91;101111.17;220335;1283;25607;-74
2023/02/07 16:16:54;;;;;;;57.50;34.20;;;;;;;-2.48;79.81;101108.23;220496;1282;22607;-75
2023/02/07 16:22:11;;;;;;;66.50;36.30;;;;;;;-2.64;80.05;101108.55;221026;1282;24248;-74
2023/02/07 16:27:19;;;;;;;67.20;38.50;;;;;;;-2.76;80.27;101115.12;221039;1282;22713;-74
2023/02/07 16:32:25;;;;;;;68.20;38.50;;;;;;;-2.87;80.56;101120.13;221155;1280;23605;-75
2023/02/07 16:37:48;;;;;;;69.00;38.10;;;;;;;-2.95;80.70;101123.45;221036;1264;24284;-74
2023/02/07 16:42:52;;;;;;;76.40;39.10;;;;;;;-2.98;80.93;101134.09;220955;1280;22732;-72
2023/02/07 16:47:57;;;;;;;71.90;38.40;;;;;;;-2.98;81.11;101138.56;220965;1282;22646;-72
2023/02/07 16:53:01;;;;;;;79.40;42.90;;;;;;;-2.94;81.11;101144.27;220991;1263;22578;-74
2023/02/07 16:58:07;;;;;;;73.90;43.00;;;;;;;-2.88;81.08;101153.94;220922;1282;22641;-73
2023/02/07 17:03:13;;;;;;;74.30;41.10;;;;;;;-2.79;81.34;101157.13;221162;1268;24384;-72
2023/02/07 17:08:26;;;;;;;88.80;48.00;;;;;;;-2.71;81.15;101160.70;220916;1282;25548;-74
2023/02/07 17:13:31;;;;;;;89.10;49.50;;;;;;;-2.65;81.22;101164.30;221004;1282;22708;-75
2023/02/07 17:18:36;;;;;;;94.50;49.60;;;;;;;-2.59;81.31;101168.61;220911;1282;22534;-73
2023/02/07 17:23:38;;;;;;;89.60;49.20;;;;;;;-2.55;81.02;101174.19;220963;1279;22683;-73
2023/02/07 17:28:40;;;;;;;90.10;50.60;;;;;;;-2.50;81.04;101168.84;220991;1277;22566;-72
2023/02/07 17:33:43;;;;;;;83.10;44.30;;;;;;;-2.44;81.38;101176.79;220902;1282;22629;-74
2023/02/07 17:38:48;;;;;;;80.50;45.20;;;;;;;-2.40;81.00;101175.98;220882;1280;24238;-74
2023/02/07 17:43:53;;;;;;;81.50;46.10;;;;;;;-2.37;81.22;101179.98;220770;1282;24301;-74
2023/02/07 17:48:55;;;;;;;89.00;47.40;;;;;;;-2.34;81.07;101179.39;220806;1275;25558;-74
2023/02/07 17:54:07;;;;;;;90.70;49.80;;;;;;;-2.33;81.18;101175.23;220875;1279;24396;-73
2023/02/07 17:59:20;;;;;;;87.60;47.30;;;;;;;-2.33;81.14;101181.43;220846;1278;22734;-73
2023/02/07 18:04:24;;;;;;;76.60;43.90;;;;;;;-2.33;81.26;101183.52;221027;1278;23454;-73
2023/02/07 18:09:26;;;;;;;83.10;44.30;;;;;;;-2.33;81.02;101183.86;220890;1281;22543;-74
2023/02/07 18:14:29;;;;;;;81.00;42.80;;;;;;;-2.34;81.12;101180.08;220835;1278;22672;-73
2023/02/07 18:19:34;;;;;;;74.00;41.40;;;;;;;-2.34;81.09;101190.44;220951;1280;22535;-73
2023/02/07 18:24:37;;;;;;;63.60;37.60;;;;;;;-2.36;80.81;101193.95;220864;1278;22544;-73
2023/02/07 18:29:40;;;;;;;66.20;35.50;;;;;;;-2.39;80.87;101196.63;220906;1280;24951;-73
2023/02/07 18:34:43;;;;;;;72.30;36.10;;;;;;;-2.43;81.01;101198.31;220684;1281;22583;-72
2023/02/07 18:39:47;;;;;;;63.80;31.60;;;;;;;-2.45;80.99;101205.09;220756;1261;25603;-72
2023/02/07 18:44:50;;;;;;;56.60;30.40;;;;;;;-2.45;80.90;101201.66;220936;1277;24378;-73
2023/02/07 18:49:53;;;;;;;46.40;26.30;;;;;;;-2.47;80.63;101206.18;220981;1279;22571;-73
2023/02/07 18:54:55;;;;;;;40.00;23.60;;;;;;;-2.51;80.89;101211.12;220774;1280;22604;-73
2023/02/07 18:59:57;;;;;;;40.40;22.70;;;;;;;-2.53;80.64;101214.66;220901;1282;22640;-73
2023/02/07 19:05:00;;;;;;;61.70;33.60;;;;;;;-2.55;80.61;101218.34;220953;1280;24825;-73
2023/02/07 19:10:04;;;;;;;43.40;25.90;;;;;;;-2.56;80.55;101221.64;221096;1282;22732;-73
2023/02/07 19:15:06;;;;;;;43.80;25.00;;;;;;;-2.52;80.65;101224.10;220877;1281;27697;-72
2023/02/07 19:20:09;;;;;;;44.10;26.30;;;;;;;-2.50;80.89;101225.73;220791;1278;22536;-74
2023/02/07 19:25:12;;;;;;;46.70;27.70;;;;;;;-2.48;80.66;101226.56;220964;1282;24240;-73
2023/02/07 19:30:17;;;;;;;47.00;26.70;;;;;;;-2.45;80.75;101223.56;220936;1277;22608;-74
2023/02/07 19:35:19;;;;;;;46.00;28.80;;;;;;;-2.44;80.73;101224.90;220930;1275;22584;-73
2023/02/07 19:40:21;;;;;;;43.40;24.10;;;;;;;-2.42;80.87;101227.95;220792;1278;22608;-73
2023/02/07 19:45:26;;;;;;;58.00;30.60;;;;;;;-2.41;80.70;101224.30;220920;1278;24278;-74
2023/02/07 19:50:29;;;;;;;63.00;33.60;;;;;;;-2.45;80.76;101222.18;220927;1278;25048;-72
2023/02/07 19:55:38;;;;;;;53.70;27.60;;;;;;;-2.46;80.66;101219.63;220945;1282;25626;-74
2023/02/07 20:00:41;;;;;;;52.10;30.80;;;;;;;-2.48;80.71;101226.23;220678;1281;22758;-74
2023/02/07 20:05:44;;;;;;;56.70;31.60;;;;;;;-2.50;80.90;101228.02;220761;1280;22720;-73
2023/02/07 20:10:50;;;;;;;54.50;28.30;;;;;;;-2.51;80.91;101230.79;220783;1282;25625;-73
2023/02/07 20:15:52;;;;;;;61.20;30.90;;;;;;;-2.52;80.86;101232.90;220803;1282;22799;-74
2023/02/07 20:20:55;;;;;;;60.00;33.10;;;;;;;-2.54;81.02;101239.17;220840;1279;22697;-74
2023/02/07 20:26:11;;;;;;;62.50;32.50;;;;;;;-2.52;81.00;101242.02;220931;1282;25574;-74
2023/02/07 20:31:17;;;;;;;61.90;33.40;;;;;;;-2.50;81.16;101247.14;221058;1278;25578;-73
2023/02/07 20:36:22;;;;;;;53.00;30.60;;;;;;;-2.50;81.29;101248.36;220949;1278;22830;-73
2023/02/07 20:41:29;;;;;;;72.80;37.00;;;;;;;-2.47;81.21;101253.81;220822;1279;22538;-73
2023/02/07 20:46:35;;;;;;;64.70;34.50;;;;;;;-2.44;81.20;101256.30;220658;1281;22826;-73
2023/02/07 20:51:37;;;;;;;69.80;36.60;;;;;;;-2.38;81.40;101258.20;220757;1282;22594;-76
2023/02/07 20:56:42;;;;;;;70.80;37.90;;;;;;;-2.36;81.35;101260.37;220792;1280;22614;-73
2023/02/07 21:01:44;;;;;;;64.90;33.10;;;;;;;-2.33;81.42;101267.90;220978;1278;24469;-73
2023/02/07 21:06:47;;;;;;;55.70;30.70;;;;;;;-2.32;81.30;101264.92;220948;1275;23036;-74
2023/02/07 21:11:53;;;;;;;63.40;34.50;;;;;;;-2.35;81.04;101264.49;220846;1280;22788;-74
2023/02/07 21:16:57;;;;;;;68.60;37.30;;;;;;;-2.36;81.27;101269.35;221002;1280;22897;-74
2023/02/07 21:21:59;;;;;;;65.90;36.40;;;;;;;-2.32;81.35;101275.95;220811;1282;25356;-73
2023/02/07 21:27:03;;;;;;;57.00;32.80;;;;;;;-2.29;81.26;101272.08;221018;1278;23403;-74
2023/02/07 21:32:06;;;;;;;59.30;32.70;;;;;;;-2.28;81.47;101265.34;221080;1279;25616;-73
2023/02/07 21:37:08;;;;;;;62.00;34.30;;;;;;;-2.29;81.23;101268.13;220927;1278;22595;-73
2023/02/07 21:42:11;;;;;;;62.80;34.00;;;;;;;-2.29;81.20;101266.22;220753;1273;25607;-73
2023/02/07 21:47:12;;;;;;;68.60;37.40;;;;;;;-2.31;81.27;101266.27;220695;1281;22593;-73
2023/02/07 21:52:17;;;;;;;74.80;40.50;;;;;;;-2.29;81.46;101272.44;220675;1283;168381;-73
2023/02/07 21:57:19;;;;;;;68.60;35.20;;;;;;;-2.25;81.51;101277.01;220907;1280;22760;-72
2023/02/07 22:02:21;;;;;;;78.90;42.50;;;;;;;-2.24;81.70;101280.92;220855;1275;25646;-74
2023/02/07 22:07:24;;;;;;;83.00;43.00;;;;;;;-2.26;81.42;101280.47;220927;1281;24239;-73
2023/02/07 22:12:29;;;;;;;99.70;50.90;;;;;;;-2.25;81.58;101283.54;220847;1282;25190;-73
2023/02/07 22:17:33;;;;;;;94.30;47.60;;;;;;;-2.23;81.38;101288.48;220936;1278;25638;-74
2023/02/07 22:22:35;;;;;;;89.30;47.30;;;;;;;-2.23;81.64;101283.14;220927;1278;24287;-74
2023/02/07 22:27:37;;;;;;;84.10;44.50;;;;;;;-2.21;81.77;101283.39;220830;1282;22607;-74
2023/02/07 22:32:41;;;;;;;79.40;41.80;;;;;;;-2.19;81.62;101285.94;220910;1282;27622;-74
2023/02/07 22:37:49;;;;;;;86.50;46.00;;;;;;;-2.21;81.49;101284.77;220782;1278;22677;-74
2023/02/07 22:42:51;;;;;;;89.70;46.30;;;;;;;-2.21;81.68;101284.43;220786;1280;22835;-73
2023/02/07 22:47:56;;;;;;;89.40;47.80;;;;;;;-2.20;81.59;101281.29;220858;1278;25600;-73
2023/02/07 22:52:59;;;;;;;108.70;53.90;;;;;;;-2.17;81.90;101284.50;220977;1282;24228;-74
2023/02/07 22:58:15;;;;;;;;;;;;;;;-2.15;81.77;101284.27;220966;1281;23048;-74
2023/02/07 23:03:17;;;;;;;113.60;55.30;;;;;;;-2.16;81.65;101281.00;220952;1282;24203;-74